sensor_id;sensor_type;location;lat;lon;timestamp;P1;durP1;ratioP1;P2;durP2;ratioP2
53801;SDS011;39709;53.334;6.534;2023-06-19T00:00:30;5.90;;;2.80;;
53801;SDS011;39709;53.334;6.534;2023-06-19T00:02:56;6.97;;;3.33;;
53801;SDS011;39709;53.334;6.534;2023-06-19T00:05:22;8.60;;;3.83;;
53801;SDS011;39709;53.334;6.534;2023-06-19T00:07:50;7.32;;;3.13;;
53801;SDS011;39709;53.334;6.534;2023-06-19T00:10:17;5.40;;;2.37;;
53801;SDS011;39709;53.334;6.534;2023-06-19T00:12:42;7.15;;;3.10;;
53801;SDS011;39709;53.334;6.534;2023-06-19T00:15:08;7.72;;;3.65;;
53801;SDS011;39709;53.334;6.534;2023-06-19T00:17:35;6.82;;;3.13;;
53801;SDS011;39709;53.334;6.534;2023-06-19T00:20:02;6.90;;;3.67;;
53801;SDS011;39709;53.334;6.534;2023-06-19T00:22:29;6.88;;;3.67;;
53801;SDS011;39709;53.334;6.534;2023-06-19T00:24:54;5.80;;;2.80;;
53801;SDS011;39709;53.334;6.534;2023-06-19T00:27:20;8.10;;;3.50;;
53801;SDS011;39709;53.334;6.534;2023-06-19T00:29:46;6.47;;;3.77;;
53801;SDS011;39709;53.334;6.534;2023-06-19T00:32:11;5.88;;;2.83;;
53801;SDS011;39709;53.334;6.534;2023-06-19T00:34:37;7.00;;;4.10;;
53801;SDS011;39709;53.334;6.534;2023-06-19T00:37:03;7.53;;;4.03;;
53801;SDS011;39709;53.334;6.534;2023-06-19T00:39:29;5.47;;;2.30;;
53801;SDS011;39709;53.334;6.534;2023-06-19T00:41:55;7.17;;;4.07;;
53801;SDS011;39709;53.334;6.534;2023-06-19T00:44:21;5.85;;;3.13;;
53801;SDS011;39709;53.334;6.534;2023-06-19T00:46:48;5.32;;;2.70;;
53801;SDS011;39709;53.334;6.534;2023-06-19T00:49:16;7.78;;;3.75;;
53801;SDS011;39709;53.334;6.534;2023-06-19T00:51:42;5.00;;;1.63;;
53801;SDS011;39709;53.334;6.534;2023-06-19T00:54:08;6.78;;;3.83;;
53801;SDS011;39709;53.334;6.534;2023-06-19T00:56:34;7.33;;;3.77;;
53801;SDS011;39709;53.334;6.534;2023-06-19T00:59:04;5.77;;;3.00;;
53801;SDS011;39709;53.334;6.534;2023-06-19T01:01:36;7.45;;;3.92;;
53801;SDS011;39709;53.334;6.534;2023-06-19T01:04:01;7.18;;;3.70;;
53801;SDS011;39709;53.334;6.534;2023-06-19T01:06:28;8.67;;;4.07;;
53801;SDS011;39709;53.334;6.534;2023-06-19T01:09:07;7.13;;;3.92;;
53801;SDS011;39709;53.334;6.534;2023-06-19T01:11:55;7.50;;;3.85;;
53801;SDS011;39709;53.334;6.534;2023-06-19T01:14:26;6.65;;;3.55;;
53801;SDS011;39709;53.334;6.534;2023-06-19T01:16:59;7.50;;;4.07;;
53801;SDS011;39709;53.334;6.534;2023-06-19T01:19:25;6.18;;;3.30;;
53801;SDS011;39709;53.334;6.534;2023-06-19T01:21:51;7.00;;;3.10;;
53801;SDS011;39709;53.334;6.534;2023-06-19T01:24:17;8.70;;;3.90;;
53801;SDS011;39709;53.334;6.534;2023-06-19T01:26:42;4.18;;;1.77;;
53801;SDS011;39709;53.334;6.534;2023-06-19T01:29:11;7.00;;;3.83;;
53801;SDS011;39709;53.334;6.534;2023-06-19T01:34:14;7.13;;;3.67;;
53801;SDS011;39709;53.334;6.534;2023-06-19T01:36:42;6.93;;;4.30;;
53801;SDS011;39709;53.334;6.534;2023-06-19T01:39:08;5.78;;;2.75;;
53801;SDS011;39709;53.334;6.534;2023-06-19T01:41:36;5.93;;;2.83;;
53801;SDS011;39709;53.334;6.534;2023-06-19T01:44:05;7.68;;;4.20;;
53801;SDS011;39709;53.334;6.534;2023-06-19T01:46:31;6.93;;;2.83;;
53801;SDS011;39709;53.334;6.534;2023-06-19T01:48:56;6.40;;;3.13;;
53801;SDS011;39709;53.334;6.534;2023-06-19T01:51:22;8.93;;;5.27;;
53801;SDS011;39709;53.334;6.534;2023-06-19T01:53:48;9.30;;;5.07;;
53801;SDS011;39709;53.334;6.534;2023-06-19T01:56:14;8.43;;;4.93;;
53801;SDS011;39709;53.334;6.534;2023-06-19T01:58:40;10.02;;;5.47;;
53801;SDS011;39709;53.334;6.534;2023-06-19T02:01:06;8.55;;;5.50;;
53801;SDS011;39709;53.334;6.534;2023-06-19T02:03:31;8.10;;;3.97;;
53801;SDS011;39709;53.334;6.534;2023-06-19T02:05:57;9.30;;;4.47;;
53801;SDS011;39709;53.334;6.534;2023-06-19T02:08:23;9.20;;;5.00;;
53801;SDS011;39709;53.334;6.534;2023-06-19T02:10:49;8.68;;;4.78;;
53801;SDS011;39709;53.334;6.534;2023-06-19T02:13:14;8.70;;;5.27;;
53801;SDS011;39709;53.334;6.534;2023-06-19T02:15:40;8.90;;;4.68;;
53801;SDS011;39709;53.334;6.534;2023-06-19T02:18:06;8.50;;;4.90;;
53801;SDS011;39709;53.334;6.534;2023-06-19T02:20:32;9.55;;;5.55;;
53801;SDS011;39709;53.334;6.534;2023-06-19T02:22:59;9.00;;;4.80;;
53801;SDS011;39709;53.334;6.534;2023-06-19T02:25:25;8.80;;;4.73;;
53801;SDS011;39709;53.334;6.534;2023-06-19T02:27:50;7.38;;;4.43;;
53801;SDS011;39709;53.334;6.534;2023-06-19T02:30:16;10.17;;;5.60;;
53801;SDS011;39709;53.334;6.534;2023-06-19T02:32:42;9.35;;;5.30;;
53801;SDS011;39709;53.334;6.534;2023-06-19T02:35:09;7.63;;;4.80;;
53801;SDS011;39709;53.334;6.534;2023-06-19T02:37:35;9.60;;;5.22;;
53801;SDS011;39709;53.334;6.534;2023-06-19T02:40:03;10.45;;;5.82;;
53801;SDS011;39709;53.334;6.534;2023-06-19T02:42:30;9.30;;;5.75;;
53801;SDS011;39709;53.334;6.534;2023-06-19T02:44:56;8.97;;;4.67;;
53801;SDS011;39709;53.334;6.534;2023-06-19T02:47:28;10.32;;;5.82;;
53801;SDS011;39709;53.334;6.534;2023-06-19T02:49:56;9.73;;;6.03;;
53801;SDS011;39709;53.334;6.534;2023-06-19T02:52:25;9.50;;;5.25;;
53801;SDS011;39709;53.334;6.534;2023-06-19T02:54:51;10.38;;;5.53;;
53801;SDS011;39709;53.334;6.534;2023-06-19T02:57:17;10.17;;;5.53;;
53801;SDS011;39709;53.334;6.534;2023-06-19T02:59:42;9.33;;;5.67;;
53801;SDS011;39709;53.334;6.534;2023-06-19T03:02:08;10.02;;;5.40;;
53801;SDS011;39709;53.334;6.534;2023-06-19T03:04:34;10.20;;;5.90;;
53801;SDS011;39709;53.334;6.534;2023-06-19T03:06:59;9.65;;;5.70;;
53801;SDS011;39709;53.334;6.534;2023-06-19T03:09:26;10.67;;;5.43;;
53801;SDS011;39709;53.334;6.534;2023-06-19T03:11:52;10.10;;;5.88;;
53801;SDS011;39709;53.334;6.534;2023-06-19T03:14:18;11.68;;;5.70;;
53801;SDS011;39709;53.334;6.534;2023-06-19T03:16:44;11.00;;;5.53;;
53801;SDS011;39709;53.334;6.534;2023-06-19T03:19:09;10.88;;;5.82;;
53801;SDS011;39709;53.334;6.534;2023-06-19T03:21:35;9.47;;;5.67;;
53801;SDS011;39709;53.334;6.534;2023-06-19T03:24:01;11.02;;;6.82;;
53801;SDS011;39709;53.334;6.534;2023-06-19T03:26:26;10.40;;;6.13;;
53801;SDS011;39709;53.334;6.534;2023-06-19T03:28:52;9.98;;;5.88;;
53801;SDS011;39709;53.334;6.534;2023-06-19T03:31:18;8.40;;;5.40;;
53801;SDS011;39709;53.334;6.534;2023-06-19T03:33:44;9.57;;;5.43;;
53801;SDS011;39709;53.334;6.534;2023-06-19T03:36:09;9.33;;;5.57;;
53801;SDS011;39709;53.334;6.534;2023-06-19T03:38:35;10.82;;;6.40;;
53801;SDS011;39709;53.334;6.534;2023-06-19T03:41:01;10.87;;;5.70;;
53801;SDS011;39709;53.334;6.534;2023-06-19T03:43:27;8.40;;;4.95;;
53801;SDS011;39709;53.334;6.534;2023-06-19T03:45:52;10.00;;;6.10;;
53801;SDS011;39709;53.334;6.534;2023-06-19T03:48:18;9.55;;;5.40;;
53801;SDS011;39709;53.334;6.534;2023-06-19T03:50:44;10.07;;;5.23;;
53801;SDS011;39709;53.334;6.534;2023-06-19T03:53:09;8.80;;;5.25;;
53801;SDS011;39709;53.334;6.534;2023-06-19T03:55:35;8.50;;;5.10;;
53801;SDS011;39709;53.334;6.534;2023-06-19T03:58:01;9.60;;;5.55;;
53801;SDS011;39709;53.334;6.534;2023-06-19T04:00:26;10.40;;;5.53;;
53801;SDS011;39709;53.334;6.534;2023-06-19T04:02:53;9.85;;;5.00;;
53801;SDS011;39709;53.334;6.534;2023-06-19T04:05:18;11.40;;;5.60;;
53801;SDS011;39709;53.334;6.534;2023-06-19T04:07:45;11.45;;;5.35;;
53801;SDS011;39709;53.334;6.534;2023-06-19T04:10:10;9.77;;;5.35;;
53801;SDS011;39709;53.334;6.534;2023-06-19T04:12:37;10.07;;;5.37;;
53801;SDS011;39709;53.334;6.534;2023-06-19T04:15:03;9.13;;;5.50;;
53801;SDS011;39709;53.334;6.534;2023-06-19T04:17:29;9.85;;;5.93;;
53801;SDS011;39709;53.334;6.534;2023-06-19T04:19:54;10.20;;;5.10;;
53801;SDS011;39709;53.334;6.534;2023-06-19T04:22:20;8.37;;;4.63;;
53801;SDS011;39709;53.334;6.534;2023-06-19T04:24:46;8.60;;;4.53;;
53801;SDS011;39709;53.334;6.534;2023-06-19T04:27:11;10.88;;;5.30;;
53801;SDS011;39709;53.334;6.534;2023-06-19T04:29:37;8.50;;;4.37;;
53801;SDS011;39709;53.334;6.534;2023-06-19T04:32:03;9.60;;;4.95;;
53801;SDS011;39709;53.334;6.534;2023-06-19T04:34:36;7.53;;;4.40;;
53801;SDS011;39709;53.334;6.534;2023-06-19T04:37:02;8.93;;;4.43;;
53801;SDS011;39709;53.334;6.534;2023-06-19T04:39:27;7.65;;;4.30;;
53801;SDS011;39709;53.334;6.534;2023-06-19T04:41:53;9.63;;;4.82;;
53801;SDS011;39709;53.334;6.534;2023-06-19T04:44:19;9.53;;;4.60;;
53801;SDS011;39709;53.334;6.534;2023-06-19T04:46:44;7.87;;;4.20;;
53801;SDS011;39709;53.334;6.534;2023-06-19T04:49:10;7.10;;;3.65;;
53801;SDS011;39709;53.334;6.534;2023-06-19T04:51:36;10.07;;;4.90;;
53801;SDS011;39709;53.334;6.534;2023-06-19T04:54:02;8.00;;;4.30;;
53801;SDS011;39709;53.334;6.534;2023-06-19T04:56:28;8.98;;;4.55;;
53801;SDS011;39709;53.334;6.534;2023-06-19T04:58:54;7.13;;;3.40;;
53801;SDS011;39709;53.334;6.534;2023-06-19T05:01:24;6.38;;;2.35;;
53801;SDS011;39709;53.334;6.534;2023-06-19T05:03:53;7.60;;;3.72;;
53801;SDS011;39709;53.334;6.534;2023-06-19T05:06:20;8.40;;;4.38;;
53801;SDS011;39709;53.334;6.534;2023-06-19T05:08:47;10.93;;;3.90;;
53801;SDS011;39709;53.334;6.534;2023-06-19T05:11:13;6.07;;;3.25;;
53801;SDS011;39709;53.334;6.534;2023-06-19T05:13:39;8.17;;;3.77;;
53801;SDS011;39709;53.334;6.534;2023-06-19T05:16:04;7.75;;;3.25;;
53801;SDS011;39709;53.334;6.534;2023-06-19T05:18:30;8.13;;;3.10;;
53801;SDS011;39709;53.334;6.534;2023-06-19T05:20:56;7.93;;;2.97;;
53801;SDS011;39709;53.334;6.534;2023-06-19T05:23:22;6.17;;;2.60;;
53801;SDS011;39709;53.334;6.534;2023-06-19T05:25:47;9.27;;;2.65;;
53801;SDS011;39709;53.334;6.534;2023-06-19T05:28:13;6.67;;;3.03;;
53801;SDS011;39709;53.334;6.534;2023-06-19T05:30:39;4.85;;;2.05;;
53801;SDS011;39709;53.334;6.534;2023-06-19T05:33:04;6.00;;;2.60;;
53801;SDS011;39709;53.334;6.534;2023-06-19T05:35:30;5.70;;;2.23;;
53801;SDS011;39709;53.334;6.534;2023-06-19T05:37:56;3.97;;;1.42;;
53801;SDS011;39709;53.334;6.534;2023-06-19T05:40:22;5.18;;;1.85;;
53801;SDS011;39709;53.334;6.534;2023-06-19T05:42:48;5.63;;;2.22;;
53801;SDS011;39709;53.334;6.534;2023-06-19T05:45:14;6.03;;;2.33;;
53801;SDS011;39709;53.334;6.534;2023-06-19T05:47:40;5.40;;;2.30;;
53801;SDS011;39709;53.334;6.534;2023-06-19T05:50:05;5.03;;;1.40;;
53801;SDS011;39709;53.334;6.534;2023-06-19T05:52:32;6.50;;;2.97;;
53801;SDS011;39709;53.334;6.534;2023-06-19T05:54:58;5.25;;;2.00;;
53801;SDS011;39709;53.334;6.534;2023-06-19T05:57:23;6.50;;;2.30;;
53801;SDS011;39709;53.334;6.534;2023-06-19T05:59:49;7.68;;;2.45;;
53801;SDS011;39709;53.334;6.534;2023-06-19T06:02:16;5.47;;;2.03;;
53801;SDS011;39709;53.334;6.534;2023-06-19T06:04:43;7.03;;;2.77;;
53801;SDS011;39709;53.334;6.534;2023-06-19T06:07:09;4.68;;;2.00;;
53801;SDS011;39709;53.334;6.534;2023-06-19T06:09:36;4.55;;;1.35;;
53801;SDS011;39709;53.334;6.534;2023-06-19T06:12:02;7.30;;;3.67;;
53801;SDS011;39709;53.334;6.534;2023-06-19T06:14:28;5.20;;;2.45;;
53801;SDS011;39709;53.334;6.534;2023-06-19T06:16:53;8.30;;;3.40;;
53801;SDS011;39709;53.334;6.534;2023-06-19T06:19:19;5.82;;;1.80;;
53801;SDS011;39709;53.334;6.534;2023-06-19T06:21:48;3.50;;;1.30;;
53801;SDS011;39709;53.334;6.534;2023-06-19T06:24:14;6.10;;;2.20;;
53801;SDS011;39709;53.334;6.534;2023-06-19T06:26:40;6.17;;;2.57;;
53801;SDS011;39709;53.334;6.534;2023-06-19T06:29:06;7.60;;;3.90;;
53801;SDS011;39709;53.334;6.534;2023-06-19T06:31:33;5.35;;;1.83;;
53801;SDS011;39709;53.334;6.534;2023-06-19T06:33:59;8.23;;;3.47;;
53801;SDS011;39709;53.334;6.534;2023-06-19T06:36:25;5.13;;;2.07;;
53801;SDS011;39709;53.334;6.534;2023-06-19T06:38:51;7.00;;;2.70;;
53801;SDS011;39709;53.334;6.534;2023-06-19T06:41:16;6.35;;;2.70;;
53801;SDS011;39709;53.334;6.534;2023-06-19T06:43:42;4.87;;;1.97;;
53801;SDS011;39709;53.334;6.534;2023-06-19T06:46:08;6.53;;;2.80;;
53801;SDS011;39709;53.334;6.534;2023-06-19T06:48:35;8.93;;;4.43;;
53801;SDS011;39709;53.334;6.534;2023-06-19T06:51:01;9.82;;;5.60;;
53801;SDS011;39709;53.334;6.534;2023-06-19T06:53:27;10.68;;;4.43;;
53801;SDS011;39709;53.334;6.534;2023-06-19T06:55:57;10.57;;;5.38;;
53801;SDS011;39709;53.334;6.534;2023-06-19T06:58:24;9.63;;;5.53;;
53801;SDS011;39709;53.334;6.534;2023-06-19T07:00:50;10.57;;;5.27;;
53801;SDS011;39709;53.334;6.534;2023-06-19T07:03:17;9.45;;;5.32;;
53801;SDS011;39709;53.334;6.534;2023-06-19T07:05:46;7.82;;;3.83;;
53801;SDS011;39709;53.334;6.534;2023-06-19T07:08:13;10.57;;;5.38;;
53801;SDS011;39709;53.334;6.534;2023-06-19T07:10:38;12.40;;;5.73;;
53801;SDS011;39709;53.334;6.534;2023-06-19T07:13:04;11.85;;;6.57;;
53801;SDS011;39709;53.334;6.534;2023-06-19T07:15:30;10.40;;;5.30;;
53801;SDS011;39709;53.334;6.534;2023-06-19T07:17:56;12.38;;;6.40;;
53801;SDS011;39709;53.334;6.534;2023-06-19T07:20:21;11.33;;;5.53;;
53801;SDS011;39709;53.334;6.534;2023-06-19T07:22:47;11.07;;;5.55;;
53801;SDS011;39709;53.334;6.534;2023-06-19T07:25:16;11.63;;;5.90;;
53801;SDS011;39709;53.334;6.534;2023-06-19T07:27:42;12.93;;;6.78;;
53801;SDS011;39709;53.334;6.534;2023-06-19T07:30:08;13.17;;;7.37;;
53801;SDS011;39709;53.334;6.534;2023-06-19T07:32:35;13.15;;;5.85;;
53801;SDS011;39709;53.334;6.534;2023-06-19T07:35:02;12.82;;;6.30;;
53801;SDS011;39709;53.334;6.534;2023-06-19T07:37:28;16.17;;;8.20;;
53801;SDS011;39709;53.334;6.534;2023-06-19T07:39:53;20.83;;;9.00;;
53801;SDS011;39709;53.334;6.534;2023-06-19T07:42:19;17.27;;;9.00;;
53801;SDS011;39709;53.334;6.534;2023-06-19T07:44:45;15.73;;;8.13;;
53801;SDS011;39709;53.334;6.534;2023-06-19T07:47:11;21.07;;;10.17;;
53801;SDS011;39709;53.334;6.534;2023-06-19T07:49:38;24.83;;;10.23;;
53801;SDS011;39709;53.334;6.534;2023-06-19T07:52:04;19.38;;;10.20;;
53801;SDS011;39709;53.334;6.534;2023-06-19T07:54:30;20.45;;;9.38;;
53801;SDS011;39709;53.334;6.534;2023-06-19T07:56:59;23.03;;;10.63;;
53801;SDS011;39709;53.334;6.534;2023-06-19T07:59:24;20.15;;;9.05;;
53801;SDS011;39709;53.334;6.534;2023-06-19T08:01:50;18.10;;;8.63;;
53801;SDS011;39709;53.334;6.534;2023-06-19T08:04:15;15.20;;;6.93;;
53801;SDS011;39709;53.334;6.534;2023-06-19T08:06:41;18.30;;;8.93;;
53801;SDS011;39709;53.334;6.534;2023-06-19T08:09:07;19.65;;;8.73;;
53801;SDS011;39709;53.334;6.534;2023-06-19T08:11:32;16.33;;;7.83;;
53801;SDS011;39709;53.334;6.534;2023-06-19T08:13:58;18.45;;;7.90;;
53801;SDS011;39709;53.334;6.534;2023-06-19T08:16:24;16.60;;;8.33;;
53801;SDS011;39709;53.334;6.534;2023-06-19T08:18:50;17.48;;;7.93;;
53801;SDS011;39709;53.334;6.534;2023-06-19T08:21:17;18.25;;;7.10;;
53801;SDS011;39709;53.334;6.534;2023-06-19T08:23:42;16.10;;;6.82;;
53801;SDS011;39709;53.334;6.534;2023-06-19T08:26:09;15.43;;;7.30;;
53801;SDS011;39709;53.334;6.534;2023-06-19T08:28:37;13.85;;;6.50;;
53801;SDS011;39709;53.334;6.534;2023-06-19T08:31:02;12.90;;;6.30;;
53801;SDS011;39709;53.334;6.534;2023-06-19T08:33:28;15.60;;;7.67;;
53801;SDS011;39709;53.334;6.534;2023-06-19T08:35:54;12.88;;;6.43;;
53801;SDS011;39709;53.334;6.534;2023-06-19T08:38:19;13.90;;;6.00;;
53801;SDS011;39709;53.334;6.534;2023-06-19T08:40:45;11.55;;;6.28;;
53801;SDS011;39709;53.334;6.534;2023-06-19T08:43:11;10.30;;;5.23;;
53801;SDS011;39709;53.334;6.534;2023-06-19T08:45:37;12.85;;;6.40;;
53801;SDS011;39709;53.334;6.534;2023-06-19T08:48:03;9.85;;;4.20;;
53801;SDS011;39709;53.334;6.534;2023-06-19T08:50:29;10.70;;;5.50;;
53801;SDS011;39709;53.334;6.534;2023-06-19T08:52:55;9.40;;;4.97;;
53801;SDS011;39709;53.334;6.534;2023-06-19T08:55:22;9.25;;;4.60;;
53801;SDS011;39709;53.334;6.534;2023-06-19T08:57:48;11.82;;;5.20;;
53801;SDS011;39709;53.334;6.534;2023-06-19T09:00:28;9.40;;;5.15;;
53801;SDS011;39709;53.334;6.534;2023-06-19T09:02:59;9.57;;;4.60;;
53801;SDS011;39709;53.334;6.534;2023-06-19T09:05:29;8.93;;;4.30;;
53801;SDS011;39709;53.334;6.534;2023-06-19T09:07:56;9.07;;;4.90;;
53801;SDS011;39709;53.334;6.534;2023-06-19T09:10:25;8.52;;;4.43;;
53801;SDS011;39709;53.334;6.534;2023-06-19T09:13:04;9.35;;;4.82;;
53801;SDS011;39709;53.334;6.534;2023-06-19T09:15:31;9.20;;;5.20;;
53801;SDS011;39709;53.334;6.534;2023-06-19T09:18:01;10.23;;;5.00;;
53801;SDS011;39709;53.334;6.534;2023-06-19T09:20:32;8.98;;;5.10;;
53801;SDS011;39709;53.334;6.534;2023-06-19T09:22:59;9.45;;;5.15;;
53801;SDS011;39709;53.334;6.534;2023-06-19T09:25:25;9.40;;;4.50;;
53801;SDS011;39709;53.334;6.534;2023-06-19T09:27:55;9.82;;;4.57;;
53801;SDS011;39709;53.334;6.534;2023-06-19T09:30:21;9.25;;;4.65;;
53801;SDS011;39709;53.334;6.534;2023-06-19T09:32:48;9.00;;;4.65;;
53801;SDS011;39709;53.334;6.534;2023-06-19T09:35:13;9.85;;;5.00;;
53801;SDS011;39709;53.334;6.534;2023-06-19T09:37:40;7.40;;;4.13;;
53801;SDS011;39709;53.334;6.534;2023-06-19T09:40:06;10.20;;;5.60;;
53801;SDS011;39709;53.334;6.534;2023-06-19T09:42:36;11.13;;;5.50;;
53801;SDS011;39709;53.334;6.534;2023-06-19T09:45:10;11.52;;;5.05;;
53801;SDS011;39709;53.334;6.534;2023-06-19T09:47:47;11.68;;;5.53;;
53801;SDS011;39709;53.334;6.534;2023-06-19T09:50:17;11.57;;;5.27;;
53801;SDS011;39709;53.334;6.534;2023-06-19T09:52:43;12.02;;;5.57;;
53801;SDS011;39709;53.334;6.534;2023-06-19T09:55:10;8.75;;;4.70;;
53801;SDS011;39709;53.334;6.534;2023-06-19T09:57:40;9.85;;;5.68;;
53801;SDS011;39709;53.334;6.534;2023-06-19T10:00:07;8.57;;;4.40;;
53801;SDS011;39709;53.334;6.534;2023-06-19T10:02:37;10.93;;;4.88;;
53801;SDS011;39709;53.334;6.534;2023-06-19T10:05:08;9.63;;;5.13;;
53801;SDS011;39709;53.334;6.534;2023-06-19T10:07:40;9.35;;;5.00;;
53801;SDS011;39709;53.334;6.534;2023-06-19T10:10:08;11.23;;;5.18;;
53801;SDS011;39709;53.334;6.534;2023-06-19T10:15:16;10.73;;;5.68;;
53801;SDS011;39709;53.334;6.534;2023-06-19T10:20:26;11.00;;;5.30;;
53801;SDS011;39709;53.334;6.534;2023-06-19T10:25:33;11.43;;;5.70;;
53801;SDS011;39709;53.334;6.534;2023-06-19T10:28:00;9.75;;;4.45;;
53801;SDS011;39709;53.334;6.534;2023-06-19T10:30:28;10.73;;;5.78;;
53801;SDS011;39709;53.334;6.534;2023-06-19T10:32:57;9.00;;;4.50;;
53801;SDS011;39709;53.334;6.534;2023-06-19T10:35:22;11.13;;;5.30;;
53801;SDS011;39709;53.334;6.534;2023-06-19T10:37:49;11.70;;;5.20;;
53801;SDS011;39709;53.334;6.534;2023-06-19T10:40:16;9.80;;;5.85;;
53801;SDS011;39709;53.334;6.534;2023-06-19T10:42:43;13.10;;;6.50;;
53801;SDS011;39709;53.334;6.534;2023-06-19T10:45:10;12.05;;;5.78;;
53801;SDS011;39709;53.334;6.534;2023-06-19T10:47:41;12.40;;;5.60;;
53801;SDS011;39709;53.334;6.534;2023-06-19T10:50:10;13.10;;;5.50;;
53801;SDS011;39709;53.334;6.534;2023-06-19T10:52:39;9.27;;;4.55;;
53801;SDS011;39709;53.334;6.534;2023-06-19T10:55:09;10.52;;;5.60;;
53801;SDS011;39709;53.334;6.534;2023-06-19T10:57:36;10.68;;;5.40;;
53801;SDS011;39709;53.334;6.534;2023-06-19T11:00:02;11.03;;;6.33;;
53801;SDS011;39709;53.334;6.534;2023-06-19T11:02:37;10.00;;;5.72;;
53801;SDS011;39709;53.334;6.534;2023-06-19T11:05:05;13.20;;;6.13;;
53801;SDS011;39709;53.334;6.534;2023-06-19T11:07:31;12.75;;;6.70;;
53801;SDS011;39709;53.334;6.534;2023-06-19T11:09:57;12.63;;;6.27;;
53801;SDS011;39709;53.334;6.534;2023-06-19T11:12:23;13.13;;;6.63;;
53801;SDS011;39709;53.334;6.534;2023-06-19T11:14:49;12.50;;;6.43;;
53801;SDS011;39709;53.334;6.534;2023-06-19T11:17:15;10.00;;;5.65;;
53801;SDS011;39709;53.334;6.534;2023-06-19T11:19:45;13.40;;;5.68;;
53801;SDS011;39709;53.334;6.534;2023-06-19T11:22:11;11.73;;;5.80;;
53801;SDS011;39709;53.334;6.534;2023-06-19T11:24:42;11.98;;;5.28;;
53801;SDS011;39709;53.334;6.534;2023-06-19T11:27:13;11.15;;;5.53;;
53801;SDS011;39709;53.334;6.534;2023-06-19T11:29:54;12.93;;;7.00;;
53801;SDS011;39709;53.334;6.534;2023-06-19T11:32:21;10.13;;;5.73;;
53801;SDS011;39709;53.334;6.534;2023-06-19T11:34:49;12.57;;;5.78;;
53801;SDS011;39709;53.334;6.534;2023-06-19T11:37:18;10.73;;;5.97;;
53801;SDS011;39709;53.334;6.534;2023-06-19T11:39:46;13.18;;;6.55;;
53801;SDS011;39709;53.334;6.534;2023-06-19T11:42:13;13.63;;;7.35;;
53801;SDS011;39709;53.334;6.534;2023-06-19T11:44:56;16.53;;;7.60;;
53801;SDS011;39709;53.334;6.534;2023-06-19T11:47:29;12.20;;;6.78;;
53801;SDS011;39709;53.334;6.534;2023-06-19T11:49:56;10.38;;;5.82;;
53801;SDS011;39709;53.334;6.534;2023-06-19T11:52:22;11.73;;;5.50;;
53801;SDS011;39709;53.334;6.534;2023-06-19T11:54:48;10.20;;;4.67;;
53801;SDS011;39709;53.334;6.534;2023-06-19T11:57:14;10.63;;;5.72;;
53801;SDS011;39709;53.334;6.534;2023-06-19T11:59:40;12.97;;;6.23;;
53801;SDS011;39709;53.334;6.534;2023-06-19T12:02:06;9.68;;;5.45;;
53801;SDS011;39709;53.334;6.534;2023-06-19T12:04:32;12.85;;;7.22;;
53801;SDS011;39709;53.334;6.534;2023-06-19T12:06:58;14.20;;;7.43;;
53801;SDS011;39709;53.334;6.534;2023-06-19T12:09:24;10.45;;;5.95;;
53801;SDS011;39709;53.334;6.534;2023-06-19T12:11:50;11.80;;;5.73;;
53801;SDS011;39709;53.334;6.534;2023-06-19T12:14:16;11.95;;;6.80;;
53801;SDS011;39709;53.334;6.534;2023-06-19T12:16:43;9.70;;;5.60;;
53801;SDS011;39709;53.334;6.534;2023-06-19T12:19:10;12.02;;;6.57;;
53801;SDS011;39709;53.334;6.534;2023-06-19T12:21:36;11.43;;;6.95;;
53801;SDS011;39709;53.334;6.534;2023-06-19T12:24:02;12.03;;;6.07;;
53801;SDS011;39709;53.334;6.534;2023-06-19T12:26:27;11.00;;;5.82;;
53801;SDS011;39709;53.334;6.534;2023-06-19T12:28:53;13.57;;;6.87;;
53801;SDS011;39709;53.334;6.534;2023-06-19T12:31:19;11.38;;;6.72;;
53801;SDS011;39709;53.334;6.534;2023-06-19T12:33:44;13.30;;;7.00;;
53801;SDS011;39709;53.334;6.534;2023-06-19T12:36:13;11.40;;;6.40;;
53801;SDS011;39709;53.334;6.534;2023-06-19T12:38:42;13.18;;;5.97;;
53801;SDS011;39709;53.334;6.534;2023-06-19T12:41:07;13.02;;;7.40;;
53801;SDS011;39709;53.334;6.534;2023-06-19T12:43:33;13.50;;;6.50;;
53801;SDS011;39709;53.334;6.534;2023-06-19T12:45:59;11.60;;;6.72;;
53801;SDS011;39709;53.334;6.534;2023-06-19T12:48:26;12.17;;;6.67;;
53801;SDS011;39709;53.334;6.534;2023-06-19T12:50:52;12.77;;;6.90;;
53801;SDS011;39709;53.334;6.534;2023-06-19T12:53:18;12.23;;;6.75;;
53801;SDS011;39709;53.334;6.534;2023-06-19T12:55:44;12.65;;;6.95;;
53801;SDS011;39709;53.334;6.534;2023-06-19T12:58:10;10.90;;;5.93;;
53801;SDS011;39709;53.334;6.534;2023-06-19T13:00:36;10.18;;;5.53;;
53801;SDS011;39709;53.334;6.534;2023-06-19T13:03:02;12.63;;;6.60;;
53801;SDS011;39709;53.334;6.534;2023-06-19T13:05:28;10.27;;;6.87;;
53801;SDS011;39709;53.334;6.534;2023-06-19T13:07:54;11.27;;;6.82;;
53801;SDS011;39709;53.334;6.534;2023-06-19T13:10:20;10.35;;;5.85;;
53801;SDS011;39709;53.334;6.534;2023-06-19T13:12:45;13.23;;;6.07;;
53801;SDS011;39709;53.334;6.534;2023-06-19T13:15:11;10.15;;;5.78;;
53801;SDS011;39709;53.334;6.534;2023-06-19T13:17:37;12.32;;;6.57;;
53801;SDS011;39709;53.334;6.534;2023-06-19T13:20:03;14.93;;;7.60;;
53801;SDS011;39709;53.334;6.534;2023-06-19T13:22:30;10.32;;;6.30;;
53801;SDS011;39709;53.334;6.534;2023-06-19T13:24:56;10.85;;;5.78;;
53801;SDS011;39709;53.334;6.534;2023-06-19T13:27:22;10.90;;;6.40;;
53801;SDS011;39709;53.334;6.534;2023-06-19T13:29:47;11.00;;;5.90;;
53801;SDS011;39709;53.334;6.534;2023-06-19T13:32:13;14.80;;;7.03;;
53801;SDS011;39709;53.334;6.534;2023-06-19T13:34:39;10.48;;;5.20;;
53801;SDS011;39709;53.334;6.534;2023-06-19T13:37:04;8.93;;;4.80;;
53801;SDS011;39709;53.334;6.534;2023-06-19T13:39:30;9.18;;;4.97;;
53801;SDS011;39709;53.334;6.534;2023-06-19T13:41:56;13.50;;;5.00;;
53801;SDS011;39709;53.334;6.534;2023-06-19T13:44:25;10.18;;;4.80;;
53801;SDS011;39709;53.334;6.534;2023-06-19T13:46:51;8.67;;;5.23;;
53801;SDS011;39709;53.334;6.534;2023-06-19T13:49:16;8.52;;;4.90;;
53801;SDS011;39709;53.334;6.534;2023-06-19T13:51:42;8.70;;;5.00;;
53801;SDS011;39709;53.334;6.534;2023-06-19T13:54:09;12.63;;;5.00;;
53801;SDS011;39709;53.334;6.534;2023-06-19T13:56:35;9.13;;;5.15;;
53801;SDS011;39709;53.334;6.534;2023-06-19T13:59:02;8.83;;;4.63;;
53801;SDS011;39709;53.334;6.534;2023-06-19T14:01:28;7.82;;;4.07;;
53801;SDS011;39709;53.334;6.534;2023-06-19T14:03:53;8.13;;;4.10;;
53801;SDS011;39709;53.334;6.534;2023-06-19T14:06:19;7.70;;;4.20;;
53801;SDS011;39709;53.334;6.534;2023-06-19T14:08:45;9.68;;;5.10;;
53801;SDS011;39709;53.334;6.534;2023-06-19T14:11:10;9.97;;;5.33;;
53801;SDS011;39709;53.334;6.534;2023-06-19T14:13:36;8.50;;;4.22;;
53801;SDS011;39709;53.334;6.534;2023-06-19T14:16:02;9.63;;;4.72;;
53801;SDS011;39709;53.334;6.534;2023-06-19T14:18:28;9.83;;;5.03;;
53801;SDS011;39709;53.334;6.534;2023-06-19T14:20:54;9.48;;;5.38;;
53801;SDS011;39709;53.334;6.534;2023-06-19T14:23:20;9.37;;;4.93;;
53801;SDS011;39709;53.334;6.534;2023-06-19T14:25:46;9.00;;;4.68;;
53801;SDS011;39709;53.334;6.534;2023-06-19T14:28:12;7.77;;;4.40;;
53801;SDS011;39709;53.334;6.534;2023-06-19T14:30:39;7.83;;;4.47;;
53801;SDS011;39709;53.334;6.534;2023-06-19T14:33:05;9.60;;;4.85;;
53801;SDS011;39709;53.334;6.534;2023-06-19T14:35:32;10.60;;;5.90;;
53801;SDS011;39709;53.334;6.534;2023-06-19T14:37:57;8.30;;;4.47;;
53801;SDS011;39709;53.334;6.534;2023-06-19T14:40:23;9.05;;;5.30;;
53801;SDS011;39709;53.334;6.534;2023-06-19T14:42:49;8.30;;;4.77;;
53801;SDS011;39709;53.334;6.534;2023-06-19T14:45:14;8.20;;;4.53;;
53801;SDS011;39709;53.334;6.534;2023-06-19T14:47:40;8.47;;;4.30;;